Time;durP1;ratioP1;P1;durP2;ratioP2;P2;SDS_P1;SDS_P2;PMS_P1;PMS_P2;Temp;Humidity;BMP_temperature;BMP_pressure;BME280_temperature;BME280_humidity;BME280_pressure;Samples;Min_cycle;Max_cycle;Signal;HPM_P1;HPM_P2
2023/10/18 00:01:01;;;;;;;1.38;1.00;;;;;;;7.86;100.00;98398.31;5040388;28;20509;-76
2023/10/18 00:03:31;;;;;;;2.78;0.95;;;;;;;8.05;100.00;98397.09;5056659;28;20045;-76
2023/10/18 00:06:16;;;;;;;5.50;1.00;;;;;;;8.03;100.00;98399.06;5040467;28;20066;-77
2023/10/18 00:08:45;;;;;;;3.67;1.30;;;;;;;8.07;100.00;98403.84;5041830;28;20139;-77
2023/10/18 00:11:17;;;;;;;3.17;1.20;;;;;;;8.14;100.00;98406.63;5039464;28;20058;-77
2023/10/18 00:13:51;;;;;;;3.63;1.20;;;;;;;7.95;100.00;98409.69;5023817;28;20118;-77
2023/10/18 00:16:17;;;;;;;1.20;1.00;;;;;;;8.00;100.00;98408.19;5024630;28;20131;-77
2023/10/18 00:18:43;;;;;;;1.50;1.20;;;;;;;8.10;100.00;98402.69;5024002;28;20218;-77
2023/10/18 00:21:09;;;;;;;1.58;0.90;;;;;;;7.98;100.00;98409.34;5024080;28;20138;-78
2023/10/18 00:23:35;;;;;;;2.60;1.50;;;;;;;8.03;100.00;98399.06;5024305;28;20227;-77
2023/10/18 00:26:07;;;;;;;3.58;0.90;;;;;;;8.20;100.00;98404.13;5022947;28;20147;-76
2023/10/18 00:28:34;;;;;;;2.80;0.90;;;;;;;8.07;100.00;98413.59;5056260;28;20148;-76
2023/10/18 00:31:10;;;;;;;2.03;1.02;;;;;;;8.29;100.00;98413.69;5006933;28;20048;-78
2023/10/18 00:33:38;;;;;;;1.60;0.95;;;;;;;7.83;100.00;98416.31;5023205;28;20119;-78
2023/10/18 00:36:04;;;;;;;2.42;1.02;;;;;;;7.98;100.00;98414.63;5023208;28;20052;-79
2023/10/18 00:38:30;;;;;;;1.73;0.93;;;;;;;8.01;100.00;98422.22;5006837;28;20040;-79
2023/10/18 00:40:56;;;;;;;2.25;0.98;;;;;;;7.99;99.98;98418.91;5039507;28;20112;-75
2023/10/18 00:43:26;;;;;;;1.58;0.80;;;;;;;8.07;99.62;98414.41;5040045;28;20450;-79
2023/10/18 00:45:55;;;;;;;1.42;0.90;;;;;;;8.17;99.97;98417.69;5023747;28;20051;-78
2023/10/18 00:48:24;;;;;;;2.20;0.90;;;;;;;8.21;99.29;98426.91;5006885;28;20165;-81
2023/10/18 00:50:54;;;;;;;4.10;1.15;;;;;;;8.21;99.27;98428.75;5006346;28;20074;-78
2023/10/18 00:53:25;;;;;;;5.35;1.02;;;;;;;8.17;99.25;98424.78;5073499;28;20048;-78
2023/10/18 00:56:04;;;;;;;1.00;0.73;;;;;;;8.21;98.89;98432.19;5039622;28;20507;-78
2023/10/18 00:58:38;;;;;;;2.00;0.80;;;;;;;8.31;98.88;98426.75;5040490;28;20040;-79
2023/10/18 01:01:10;;;;;;;2.03;1.00;;;;;;;8.19;98.38;98433.38;5023776;28;20041;-79
2023/10/18 01:03:38;;;;;;;2.05;1.00;;;;;;;8.18;98.37;98427.25;5011529;28;20040;-80
2023/10/18 01:06:17;;;;;;;2.15;1.02;;;;;;;8.24;98.56;98433.72;5079220;28;20087;-80
2023/10/18 01:08:46;;;;;;;1.88;0.82;;;;;;;8.20;98.27;98435.84;4999328;28;20044;-80
2023/10/18 01:11:14;;;;;;;4.95;0.90;;;;;;;8.21;98.38;98436.69;5043195;28;20489;-80
2023/10/18 01:13:42;;;;;;;1.33;0.90;;;;;;;8.34;98.56;98439.63;5023726;28;20059;-80
2023/10/18 01:16:14;;;;;;;3.15;1.05;;;;;;;8.28;98.69;98440.31;5043179;28;20044;-80
2023/10/18 01:18:48;;;;;;;1.88;1.05;;;;;;;8.16;98.67;98439.81;5039705;28;20063;-82
2023/10/18 01:21:17;;;;;;;2.45;1.02;;;;;;;8.30;98.48;98440.97;5040085;28;20497;-81
2023/10/18 01:23:49;;;;;;;1.13;0.98;;;;;;;8.37;99.19;98441.91;4999431;28;20045;-81
2023/10/18 01:26:17;;;;;;;2.15;0.90;;;;;;;8.34;98.71;98435.16;5016346;28;20136;-81
2023/10/18 01:28:46;;;;;;;4.10;1.00;;;;;;;8.30;98.74;98448.91;5000026;28;20045;-80
2023/10/18 01:31:12;;;;;;;4.25;0.90;;;;;;;8.16;98.56;98431.88;5015243;28;20067;-81
2023/10/18 01:33:43;;;;;;;1.65;0.95;;;;;;;8.25;98.51;98436.19;4983218;28;20053;-82
2023/10/18 01:36:14;;;;;;;;;;;;;;;8.46;99.19;98446.16;4978346;28;20145;-80
2023/10/18 01:38:49;;;;;;;1.55;0.82;;;;;;;8.34;98.71;98447.56;4998987;28;19945;-77
2023/10/18 01:41:34;;;;;;;1.75;0.77;;;;;;;8.25;98.48;98438.84;4982004;28;20060;-82
2023/10/18 01:44:10;;;;;;;3.60;1.35;;;;;;;8.21;99.36;98445.44;4992942;28;20606;-81
2023/10/18 01:46:37;;;;;;;2.22;0.80;;;;;;;8.41;99.25;98451.97;4995923;28;20089;-79
2023/10/18 01:49:04;;;;;;;2.30;1.27;;;;;;;8.23;98.24;98450.56;4985090;28;20058;-78
2023/10/18 01:51:33;;;;;;;0.80;0.80;;;;;;;8.38;98.11;98447.03;4975709;28;20064;-80
2023/10/18 01:54:12;;;;;;;3.80;1.00;;;;;;;8.30;97.72;98449.72;4971678;28;20152;-74
2023/10/18 01:56:41;;;;;;;2.22;0.85;;;;;;;8.42;98.27;98456.28;4999455;28;20065;-81
2023/10/18 01:59:14;;;;;;;1.17;0.77;;;;;;;8.42;98.06;98458.94;4998533;28;20041;-80
2023/10/18 02:01:44;;;;;;;1.00;0.90;;;;;;;8.47;97.30;98461.88;4998850;28;20049;-80
2023/10/18 02:04:23;;;;;;;1.17;0.80;;;;;;;8.60;96.86;98456.00;4998204;28;20503;-79
2023/10/18 02:06:51;;;;;;;1.77;0.77;;;;;;;8.57;96.33;98466.94;5011111;28;20870;-80
2023/10/18 02:09:19;;;;;;;3.08;0.98;;;;;;;8.59;96.05;98462.31;5021729;28;20040;-76
2023/10/18 02:11:46;;;;;;;2.55;0.90;;;;;;;8.75;95.86;98462.19;5071192;28;20051;-75
2023/10/18 02:14:13;;;;;;;1.45;0.70;;;;;;;8.67;95.38;98464.09;5004652;28;20036;-75
2023/10/18 02:16:45;;;;;;;2.53;1.00;;;;;;;8.70;95.02;98463.75;5038144;28;20055;-76
2023/10/18 02:19:13;;;;;;;16.90;1.00;;;;;;;8.64;94.79;98454.69;5072737;28;20132;-76
2023/10/18 02:21:40;;;;;;;1.50;0.80;;;;;;;8.57;94.61;98461.66;5004988;28;20051;-78
2023/10/18 02:24:07;;;;;;;4.28;0.80;;;;;;;8.57;95.17;98466.94;5037430;28;20063;-78
2023/10/18 02:26:33;;;;;;;3.35;1.00;;;;;;;8.71;95.01;98460.91;5037190;28;20044;-78
2023/10/18 02:29:05;;;;;;;1.50;0.93;;;;;;;8.66;94.93;98463.25;5037600;28;20455;-78
2023/10/18 02:31:33;;;;;;;1.77;0.80;;;;;;;8.54;95.22;98462.84;5005331;28;20090;-76
2023/10/18 02:34:04;;;;;;;1.50;0.80;;;;;;;8.56;95.12;98465.31;5053795;28;20036;-76
2023/10/18 02:36:33;;;;;;;2.35;1.00;;;;;;;8.62;95.03;98458.47;5037859;28;20051;-76
2023/10/18 02:39:00;;;;;;;2.45;1.10;;;;;;;8.71;94.86;98470.66;5037775;28;20135;-80
2023/10/18 02:41:27;;;;;;;1.27;0.80;;;;;;;8.67;95.20;98466.72;5036875;28;20044;-79
2023/10/18 02:44:00;;;;;;;2.17;0.88;;;;;;;8.71;95.06;98476.78;5037555;28;20068;-81
2023/10/18 02:46:26;;;;;;;0.82;0.80;;;;;;;8.55;95.41;98472.41;5055136;28;20578;-81
2023/10/18 02:48:57;;;;;;;4.72;0.90;;;;;;;8.70;95.73;98471.69;5036791;28;20053;-79
2023/10/18 02:51:28;;;;;;;3.03;1.15;;;;;;;8.74;95.27;98476.44;5053699;28;20121;-76
2023/10/18 02:54:07;;;;;;;5.22;1.00;;;;;;;8.84;95.62;98469.09;5054306;28;20574;-78
2023/10/18 02:56:37;;;;;;;4.60;0.90;;;;;;;8.61;95.36;98468.25;5055421;28;20102;-74
2023/10/18 02:59:09;;;;;;;1.75;0.90;;;;;;;8.58;96.00;98472.06;5055236;28;20048;-73
2023/10/18 03:01:44;;;;;;;5.03;1.00;;;;;;;8.61;96.51;98472.72;5037052;28;20056;-77
2023/10/18 03:04:18;;;;;;;1.50;1.00;;;;;;;8.54;96.57;98467.28;5038320;28;20036;-81
2023/10/18 03:06:46;;;;;;;1.55;1.08;;;;;;;8.50;96.23;98474.75;5054514;28;20055;-78
2023/10/18 03:11:59;;;;;;;1.10;0.98;;;;;;;8.42;97.74;98472.16;5053836;28;20072;-80
2023/10/18 03:14:41;;;;;;;2.90;1.00;;;;;;;8.32;97.80;98470.69;5053311;28;20090;-76
2023/10/18 03:17:24;;;;;;;1.63;0.90;;;;;;;8.49;97.92;98472.28;5022552;28;20124;-78
2023/10/18 03:19:56;;;;;;;1.30;0.90;;;;;;;8.57;97.41;98467.78;5070906;28;20049;-78
2023/10/18 03:22:25;;;;;;;1.88;1.02;;;;;;;8.37;97.60;98473.66;5005229;28;20143;-79
2023/10/18 03:24:55;;;;;;;1.92;1.20;;;;;;;8.37;97.83;98471.84;5075089;28;20036;-79
2023/10/18 03:27:24;;;;;;;2.08;1.10;;;;;;;8.25;98.87;98467.09;5074882;28;20052;-78
2023/10/18 03:29:58;;;;;;;1.63;1.10;;;;;;;8.32;99.59;98462.75;5075482;28;20135;-80
2023/10/18 03:32:25;;;;;;;4.70;1.10;;;;;;;8.26;99.16;98461.66;5025926;28;20044;-78
2023/10/18 03:34:54;;;;;;;2.63;1.27;;;;;;;8.25;99.00;98469.75;5042176;28;20142;-77
2023/10/18 03:37:26;;;;;;;3.33;1.35;;;;;;;8.27;98.47;98481.00;5041152;28;20097;-77
2023/10/18 03:39:53;;;;;;;7.88;1.30;;;;;;;8.19;99.29;98467.75;5025014;28;20048;-77
2023/10/18 03:42:30;;;;;;;2.50;1.38;;;;;;;8.25;99.33;98477.69;5024218;28;20402;-77
2023/10/18 03:45:01;;;;;;;2.25;1.20;;;;;;;8.42;99.49;98466.03;5058385;28;20447;-76
2023/10/18 03:47:36;;;;;;;3.45;1.10;;;;;;;8.26;99.09;98471.38;5007259;28;20047;-76
2023/10/18 03:50:08;;;;;;;2.55;1.02;;;;;;;8.37;98.87;98471.84;5074493;28;20044;-75
2023/10/18 03:52:34;;;;;;;7.47;1.33;;;;;;;8.29;98.81;98469.22;5008186;28;20040;-75
2023/10/18 03:57:39;;;;;;;1.02;0.90;;;;;;;8.43;98.70;98480.91;5040889;28;20048;-78
2023/10/18 04:00:28;;;;;;;4.95;1.00;;;;;;;8.52;98.15;98485.16;5056817;28;20487;-77
2023/10/18 04:02:56;;;;;;;2.95;1.00;;;;;;;8.28;98.24;98472.88;5059270;28;20109;-76
2023/10/18 04:05:45;;;;;;;5.50;1.33;;;;;;;8.37;98.34;98477.13;5023626;28;20086;-76
2023/10/18 04:08:19;;;;;;;1.98;0.95;;;;;;;8.43;98.30;98486.19;5073600;28;20056;-76
2023/10/18 04:10:46;;;;;;;5.05;1.30;;;;;;;8.08;98.74;98492.75;5040966;28;20048;-71
2023/10/18 04:13:14;;;;;;;3.05;1.08;;;;;;;8.31;99.17;98495.50;5056442;28;20036;-74
2023/10/18 04:15:57;;;;;;;3.63;1.05;;;;;;;8.25;99.27;98489.09;5023413;28;20044;-74
2023/10/18 04:18:26;;;;;;;4.38;1.38;;;;;;;8.04;99.63;98494.06;5026014;28;20044;-75
2023/10/18 04:20:52;;;;;;;2.35;1.20;;;;;;;8.22;99.64;98500.03;4980800;28;20074;-75
2023/10/18 04:23:20;;;;;;;5.35;1.33;;;;;;;8.30;99.05;98501.81;4963803;28;20058;-79
2023/10/18 04:26:00;;;;;;;3.87;1.30;;;;;;;8.33;99.20;98490.88;4979181;28;20057;-75
2023/10/18 04:28:30;;;;;;;2.17;0.95;;;;;;;8.04;99.06;98512.59;4995657;28;20041;-76
2023/10/18 04:30:59;;;;;;;2.15;1.40;;;;;;;7.97;100.00;98500.22;4995532;28;20460;-76
2023/10/18 04:33:37;;;;;;;3.33;1.10;;;;;;;8.29;100.00;98500.13;4947391;28;20046;-70
2023/10/18 04:36:22;;;;;;;1.48;1.15;;;;;;;8.33;100.00;98496.19;5015682;28;20301;-70
2023/10/18 04:38:49;;;;;;;4.28;1.52;;;;;;;8.18;100.00;98496.03;4986630;28;20141;-71
2023/10/18 04:43:52;;;;;;;3.72;1.13;;;;;;;8.17;99.30;98486.44;4995251;28;20052;-72
2023/10/18 04:46:26;;;;;;;2.28;1.10;;;;;;;8.18;99.45;98493.38;4979150;28;20136;-73
2023/10/18 04:54:09;;;;;;;1.90;1.10;;;;;;;8.40;98.89;98502.41;5058843;28;20048;-72
2023/10/18 04:56:38;;;;;;;3.42;1.33;;;;;;;8.40;97.85;98508.53;5043739;28;20094;-73
2023/10/18 05:04:24;;;;;;;1.58;1.00;;;;;;;8.23;98.50;98517.53;5071170;28;20040;-69
2023/10/18 05:06:55;;;;;;;4.07;1.40;;;;;;;8.26;97.44;98522.47;5038606;28;20055;-74
2023/10/18 05:09:30;;;;;;;1.08;0.98;;;;;;;8.26;97.08;98522.47;5054223;28;20127;-71
2023/10/18 05:11:58;;;;;;;3.72;1.50;;;;;;;8.06;97.40;98521.19;5035816;28;20490;-70
2023/10/18 05:14:36;;;;;;;1.60;1.10;;;;;;;7.96;97.50;98527.66;5035116;28;20047;-67
2023/10/18 05:17:17;;;;;;;2.10;1.10;;;;;;;8.03;97.71;98518.03;5053885;28;20040;-67
2023/10/18 05:19:43;;;;;;;1.45;1.15;;;;;;;7.81;96.73;98537.28;5070744;28;20040;-70
2023/10/18 05:22:09;;;;;;;1.40;1.20;;;;;;;7.66;97.93;98529.19;5072258;28;20045;-69
2023/10/18 05:24:40;;;;;;;1.70;0.93;;;;;;;7.95;97.43;98536.59;5071428;28;20060;-70
2023/10/18 05:27:24;;;;;;;3.10;1.30;;;;;;;8.13;96.48;98532.72;5053856;28;20095;-72
2023/10/18 05:29:58;;;;;;;2.20;1.30;;;;;;;8.32;96.14;98536.81;5071804;28;20043;-71
2023/10/18 05:37:50;;;;;;;2.10;1.10;;;;;;;8.46;95.18;98539.59;5071454;28;20127;-73
2023/10/18 05:43:03;;;;;;;1.55;1.10;;;;;;;8.40;94.24;98531.50;5022982;28;20076;-78
2023/10/18 05:45:32;;;;;;;3.05;1.30;;;;;;;8.58;94.62;98538.22;5053037;28;20240;-75
2023/10/18 05:48:12;;;;;;;2.22;1.00;;;;;;;8.62;94.12;98537.88;5040138;28;20040;-73
2023/10/18 05:50:45;;;;;;;4.70;1.20;;;;;;;8.63;93.72;98540.34;5055732;28;20052;-70
2023/10/18 05:53:12;;;;;;;3.03;1.20;;;;;;;8.72;92.84;98525.28;5054518;28;20097;-70
2023/10/18 05:55:40;;;;;;;4.75;1.30;;;;;;;8.79;92.49;98539.44;5053581;28;20084;-72
2023/10/18 05:58:06;;;;;;;2.08;1.23;;;;;;;8.75;92.73;98546.09;5070753;28;20486;-71
2023/10/18 06:00:33;;;;;;;6.38;1.20;;;;;;;8.61;92.19;98546.81;5070470;28;20048;-72
2023/10/18 06:03:02;;;;;;;1.20;1.00;;;;;;;8.94;92.97;98545.66;5070796;28;20040;-72
2023/10/18 06:05:33;;;;;;;1.85;1.30;;;;;;;8.57;92.63;98546.34;5053269;28;20044;-72
2023/10/18 06:08:01;;;;;;;7.30;1.30;;;;;;;8.83;92.12;98546.03;5068285;28;20862;-71
2023/10/18 06:10:27;;;;;;;2.08;1.45;;;;;;;8.81;91.78;98548.06;5053091;28;20455;-70
2023/10/18 06:13:05;;;;;;;3.65;1.45;;;;;;;8.81;91.95;98543.56;5035687;28;20036;-70
2023/10/18 06:15:44;;;;;;;3.97;1.30;;;;;;;8.77;91.95;98539.63;5054387;28;20544;-71
2023/10/18 06:18:17;;;;;;;4.05;1.20;;;;;;;8.45;91.98;98543.25;5053141;28;20104;-70
2023/10/18 06:20:45;;;;;;;2.70;1.27;;;;;;;8.55;92.27;98554.44;5053052;28;20048;-70
2023/10/18 06:25:49;;;;;;;1.92;0.95;;;;;;;8.58;91.09;98551.44;5037974;28;20080;-72
2023/10/18 06:28:24;;;;;;;1.48;1.00;;;;;;;8.30;92.48;98552.06;5019838;28;20366;-71
2023/10/18 06:30:51;;;;;;;2.20;1.10;;;;;;;8.68;92.10;98564.50;5054062;28;20043;-70
2023/10/18 06:33:19;;;;;;;3.22;1.00;;;;;;;8.71;91.29;98550.91;5036421;28;20097;-71
2023/10/18 06:35:52;;;;;;;1.65;1.15;;;;;;;8.97;90.39;98547.94;5037226;28;20075;-74
2023/10/18 06:38:23;;;;;;;1.83;1.00;;;;;;;9.03;89.79;98555.19;5053058;28;20149;-72
2023/10/18 06:40:51;;;;;;;;;;;;;;;9.25;89.15;98551.75;5053449;28;20127;-72
2023/10/18 06:43:20;;;;;;;1.75;1.02;;;;;;;9.12;88.96;98557.63;5070927;28;19920;-73
2023/10/18 06:45:48;;;;;;;3.45;1.42;;;;;;;8.62;89.99;98567.81;5054194;28;20076;-72
2023/10/18 06:48:15;;;;;;;1.90;1.17;;;;;;;8.86;91.15;98556.28;5070883;28;20055;-74
2023/10/18 06:50:41;;;;;;;1.55;1.05;;;;;;;9.09;90.40;98551.84;5036978;28;20129;-75
2023/10/18 06:53:09;;;;;;;1.38;1.02;;;;;;;9.21;89.55;98558.41;5052121;28;20470;-73
2023/10/18 06:58:15;;;;;;;2.67;1.20;;;;;;;9.08;88.45;98545.75;5023426;28;20102;-73
2023/10/18 07:00:51;;;;;;;2.03;1.05;;;;;;;9.28;88.51;98554.06;5038857;28;20067;-71
2023/10/18 07:03:37;;;;;;;2.65;1.05;;;;;;;9.59;86.93;98541.56;5055608;28;20028;-72
2023/10/18 07:06:18;;;;;;;0.80;0.80;;;;;;;9.78;86.13;98549.00;5073427;28;20440;-77
2023/10/18 07:08:45;;;;;;;1.83;1.27;;;;;;;9.73;84.87;98546.88;5026489;28;20103;-73
2023/10/18 07:11:18;;;;;;;1.20;0.98;;;;;;;10.16;83.67;98548.81;5003680;28;20029;-73
2023/10/18 07:13:49;;;;;;;2.55;1.25;;;;;;;10.21;82.02;98566.84;5056635;28;20051;-72
2023/10/18 07:16:18;;;;;;;;;;;;;;;10.01;82.13;98561.22;5053915;28;20055;-70
2023/10/18 07:19:03;;;;;;;3.70;1.02;;;;;;;9.55;83.00;98548.22;5073437;28;19920;-70
2023/10/18 07:21:32;;;;;;;1.65;0.90;;;;;;;9.80;82.73;98547.00;5054663;28;20046;-73
2023/10/18 07:24:09;;;;;;;2.33;1.20;;;;;;;10.90;81.89;98553.09;5021714;28;20044;-73
2023/10/18 07:26:38;;;;;;;3.05;0.90;;;;;;;11.09;77.98;98549.00;5057041;28;20036;-70
2023/10/18 07:29:07;;;;;;;1.73;0.90;;;;;;;11.51;76.70;98549.06;5055114;28;20394;-72
2023/10/18 07:31:38;;;;;;;5.40;1.23;;;;;;;11.54;75.35;98548.69;5071443;28;20120;-69
2023/10/18 07:34:07;;;;;;;;;;;;;;;11.81;74.51;98551.41;5040892;28;20109;-71
2023/10/18 07:36:44;;;;;;;1.33;1.10;;;;;;;11.40;74.50;98544.25;5073313;28;19924;-70
2023/10/18 07:39:16;;;;;;;1.38;1.10;;;;;;;11.34;75.14;98556.47;5072658;28;20170;-74
2023/10/18 07:41:43;;;;;;;1.40;0.88;;;;;;;11.43;74.65;98555.31;5070650;28;20459;-73
2023/10/18 07:44:09;;;;;;;3.67;1.38;;;;;;;11.10;73.43;98562.13;5056214;28;20036;-72
2023/10/18 07:46:42;;;;;;;1.63;1.00;;;;;;;11.08;74.22;98555.34;5038001;28;20037;-72
2023/10/18 07:49:13;;;;;;;2.20;1.30;;;;;;;10.43;75.23;98565.13;5070540;28;20140;-71
2023/10/18 07:51:55;;;;;;;3.25;1.27;;;;;;;10.54;76.26;98567.34;5022699;28;20415;-72
2023/10/18 07:54:22;;;;;;;1.98;1.10;;;;;;;10.15;76.67;98579.03;5035751;28;20060;-73
2023/10/18 07:56:49;;;;;;;1.60;1.00;;;;;;;10.18;78.04;98567.22;5055715;28;20071;-73
2023/10/18 07:59:32;;;;;;;2.00;1.05;;;;;;;10.16;78.57;98572.69;5054412;28;20055;-73
2023/10/18 08:04:47;;;;;;;1.35;1.00;;;;;;;9.92;79.14;98566.78;5055480;28;20036;-74
2023/10/18 08:07:19;;;;;;;1.10;0.90;;;;;;;9.87;78.66;98564.66;5033461;28;20067;-74
2023/10/18 08:09:48;;;;;;;1.75;1.15;;;;;;;10.06;78.59;98572.13;5034532;28;20630;-74
2023/10/18 08:14:52;;;;;;;3.72;1.17;;;;;;;9.84;79.62;98572.97;5019935;28;20044;-73
2023/10/18 08:17:30;;;;;;;4.53;1.20;;;;;;;9.81;79.70;98577.84;5002355;28;20053;-74
2023/10/18 08:20:28;;;;;;;1.90;1.05;;;;;;;9.83;80.59;98576.66;5020425;28;20478;-74
2023/10/18 08:22:45;;;;;;;3.42;1.25;;;;;;;9.69;81.53;98574.78;5060305;28;20041;-74
2023/10/18 08:25:24;;;;;;;2.95;1.60;;;;;;;9.66;82.51;98569.84;5051275;28;20045;-74
2023/10/18 08:27:51;;;;;;;3.97;1.40;;;;;;;9.66;82.32;98582.25;5000553;28;20365;-73
2023/10/18 08:33:03;;;;;;;3.13;1.60;;;;;;;9.67;82.94;98573.31;5032599;28;20514;-74
2023/10/18 08:35:29;;;;;;;7.90;1.70;;;;;;;9.62;83.08;98565.91;4958093;28;20129;-74
2023/10/18 08:37:55;;;;;;;3.25;1.20;;;;;;;9.61;83.52;98574.84;4942320;28;20046;-73
2023/10/18 08:40:28;;;;;;;2.30;1.35;;;;;;;9.93;82.70;98585.16;4958188;28;20038;-74
2023/10/18 08:43:06;;;;;;;2.08;1.20;;;;;;;10.14;81.70;98573.91;4958414;28;20385;-73
2023/10/18 08:45:36;;;;;;;2.40;1.20;;;;;;;9.57;82.31;98580.66;4973771;28;20461;-73
2023/10/18 08:48:10;;;;;;;2.78;1.50;;;;;;;9.76;81.75;98565.09;4973818;28;20053;-74
2023/10/18 08:50:39;;;;;;;6.88;1.63;;;;;;;9.90;82.01;98574.91;4972536;28;20046;-73
2023/10/18 08:53:06;;;;;;;2.22;1.42;;;;;;;9.86;81.18;98570.97;4974428;28;20112;-73
2023/10/18 08:55:45;;;;;;;3.72;1.20;;;;;;;10.12;80.93;98573.25;4957869;28;20066;-73
2023/10/18 08:58:12;;;;;;;3.25;2.40;;;;;;;9.93;80.77;98573.75;4975787;28;20073;-73
2023/10/18 09:03:07;;;;;;;2.10;1.20;;;;;;;9.57;80.93;98576.19;4958889;28;20062;-72
2023/10/18 09:05:35;;;;;;;2.97;1.50;;;;;;;9.77;81.09;98576.53;4966422;28;20055;-73
2023/10/18 09:08:03;;;;;;;4.05;1.50;;;;;;;9.84;81.03;98562.38;5054315;28;20045;-71
2023/10/18 09:10:42;;;;;;;3.33;1.40;;;;;;;10.03;81.01;98561.88;5044215;28;20139;-72
2023/10/18 09:15:54;;;;;;;1.23;1.13;;;;;;;10.53;78.40;98566.53;5025377;28;20382;-72
2023/10/18 09:18:23;;;;;;;2.58;1.30;;;;;;;10.44;78.43;98556.97;5043918;28;20033;-73
2023/10/18 09:20:49;;;;;;;1.60;1.40;;;;;;;10.25;78.82;98560.19;5056033;28;20091;-70
2023/10/18 09:23:24;;;;;;;4.35;1.75;;;;;;;9.79;79.40;98571.88;5017216;28;20041;-70
2023/10/18 09:26:12;;;;;;;2.65;1.50;;;;;;;9.90;80.71;98564.31;5034127;28;20051;-70
2023/10/18 09:28:41;;;;;;;2.97;1.45;;;;;;;9.62;81.75;98560.59;5036900;28;20041;-70
2023/10/18 09:31:12;;;;;;;1.85;1.35;;;;;;;9.69;82.68;98561.53;5017389;28;20048;-67
2023/10/18 09:36:25;;;;;;;2.38;1.15;;;;;;;9.75;81.79;98565.28;5016948;28;20153;-69
2023/10/18 09:38:57;;;;;;;1.77;1.23;;;;;;;9.96;81.73;98558.28;5034349;28;20159;-74
2023/10/18 09:41:30;;;;;;;2.58;1.15;;;;;;;10.07;80.74;98565.03;4985973;28;20037;-73
2023/10/18 09:44:00;;;;;;;2.75;1.20;;;;;;;10.27;80.23;98568.81;5002817;28;20438;-72
2023/10/18 09:46:27;;;;;;;3.88;1.52;;;;;;;10.23;79.85;98560.38;4985566;28;20033;-73
2023/10/18 09:48:54;;;;;;;1.92;1.20;;;;;;;10.66;80.17;98550.75;5001265;28;20055;-72
2023/10/18 09:51:23;;;;;;;3.80;1.40;;;;;;;10.69;78.94;98563.66;5016271;28;20507;-71
2023/10/18 09:53:55;;;;;;;2.58;1.30;;;;;;;10.66;78.40;98550.75;5017683;28;20044;-73
2023/10/18 09:56:27;;;;;;;8.57;1.30;;;;;;;10.79;78.34;98558.06;5017685;28;20049;-73
2023/10/18 09:59:05;;;;;;;4.57;1.40;;;;;;;10.86;77.66;98553.66;5017275;28;20075;-72
2023/10/18 10:04:12;;;;;;;5.32;1.60;;;;;;;10.49;78.80;98559.09;5033672;28;20047;-73
2023/10/18 10:06:45;;;;;;;1.88;1.25;;;;;;;10.27;79.31;98555.53;5017044;28;20048;-74
2023/10/18 10:09:13;;;;;;;11.15;1.77;;;;;;;10.27;79.66;98554.72;5017208;28;20037;-77
2023/10/18 10:11:44;;;;;;;3.33;1.30;;;;;;;10.20;80.13;98555.44;5007451;28;20067;-72
2023/10/18 10:14:16;;;;;;;1.33;1.00;;;;;;;10.25;79.81;98553.03;4987074;28;20029;-73
2023/10/18 10:16:54;;;;;;;4.30;1.48;;;;;;;10.42;79.81;98551.06;4984719;28;20040;-75
2023/10/18 10:19:31;;;;;;;2.13;1.20;;;;;;;10.34;79.48;98558.25;4976635;28;20682;-79
2023/10/18 10:22:07;;;;;;;2.50;1.60;;;;;;;10.33;79.18;98553.97;4968371;28;20144;-75
2023/10/18 10:24:42;;;;;;;1.80;1.17;;;;;;;10.57;78.96;98564.31;4968364;28;20125;-76
2023/10/18 10:27:27;;;;;;;3.28;1.38;;;;;;;10.22;79.93;98557.91;4992119;28;20042;-79
2023/10/18 10:29:58;;;;;;;9.65;1.77;;;;;;;10.31;80.54;98556.81;4992222;28;20050;-77
2023/10/18 10:32:24;;;;;;;1.70;1.15;;;;;;;10.31;79.86;98569.25;4999860;28;20037;-75
2023/10/18 10:35:16;;;;;;;1.65;1.35;;;;;;;10.43;80.73;98550.03;4982205;28;20050;-74
2023/10/18 10:37:50;;;;;;;2.88;1.30;;;;;;;10.36;80.63;98553.59;5008518;28;20081;-75
2023/10/18 10:43:01;;;;;;;2.22;1.40;;;;;;;10.27;81.81;98557.34;4965129;28;20101;-79
2023/10/18 10:45:43;;;;;;;;;;;;;;;10.14;81.93;98550.03;4982930;28;20125;-76
2023/10/18 10:48:15;;;;;;;2.08;1.30;;;;;;;10.08;82.93;98550.75;4999403;28;19921;-74
2023/10/18 10:50:50;;;;;;;4.10;1.60;;;;;;;10.02;83.08;98554.09;4982689;28;20077;-75
2023/10/18 10:53:34;;;;;;;3.05;1.35;;;;;;;10.21;83.16;98554.41;4996028;28;20040;-74
2023/10/18 10:56:20;;;;;;;2.53;1.50;;;;;;;10.08;82.50;98558.72;4997163;28;20055;-74
2023/10/18 11:04:27;;;;;;;5.63;1.50;;;;;;;10.65;81.41;98561.56;5016241;28;20040;-73
2023/10/18 11:07:00;;;;;;;2.13;1.90;;;;;;;10.74;81.03;98563.09;5015232;28;20102;-76
2023/10/18 11:09:32;;;;;;;3.38;1.50;;;;;;;10.73;80.74;98556.16;5002704;28;20028;-79
2023/10/18 11:12:08;;;;;;;6.63;1.70;;;;;;;10.91;80.49;98551.25;5025003;28;20052;-77
2023/10/18 11:14:38;;;;;;;3.30;1.65;;;;;;;10.91;80.27;98548.59;5003839;28;20046;-78
2023/10/18 11:17:24;;;;;;;2.40;1.40;;;;;;;10.78;79.71;98546.63;4964917;28;20088;-74
2023/10/18 11:19:59;;;;;;;2.67;1.38;;;;;;;10.76;79.54;98555.78;4998775;28;20487;-74
2023/10/18 11:22:29;;;;;;;2.53;1.50;;;;;;;11.05;79.52;98548.59;4963569;28;20083;-73
2023/10/18 11:24:59;;;;;;;2.15;1.40;;;;;;;11.05;79.55;98545.94;4963444;28;20045;-74
2023/10/18 11:27:37;;;;;;;2.63;1.58;;;;;;;10.71;81.04;98558.16;4994737;28;20056;-74
2023/10/18 11:32:37;;;;;;;1.98;1.50;;;;;;;11.10;81.47;98540.06;4980489;28;20045;-73
2023/10/18 11:35:12;;;;;;;2.83;1.85;;;;;;;10.82;82.00;98539.09;4995659;28;20219;-75
2023/10/18 11:37:40;;;;;;;2.22;1.73;;;;;;;10.68;83.04;98551.41;4980873;28;20045;-74
2023/10/18 11:40:18;;;;;;;3.38;1.80;;;;;;;10.77;83.00;98537.00;4979580;28;20068;-73
2023/10/18 11:43:11;;;;;;;3.13;1.80;;;;;;;11.05;84.37;98534.47;4978634;28;20056;-73
2023/10/18 11:45:42;;;;;;;5.53;1.80;;;;;;;10.98;83.71;98547.66;4979452;28;20065;-72
2023/10/18 11:48:14;;;;;;;5.13;1.90;;;;;;;10.87;83.82;98542.03;4979190;28;20142;-73
2023/10/18 11:50:47;;;;;;;3.25;2.03;;;;;;;10.92;85.80;98535.16;4991014;28;20090;-72
2023/10/18 11:53:24;;;;;;;3.05;1.70;;;;;;;10.73;87.28;98530.41;5017311;28;20040;-72
2023/10/18 11:56:01;;;;;;;4.57;1.90;;;;;;;10.37;89.88;98540.16;5002968;28;20029;-73
2023/10/18 11:58:30;;;;;;;2.75;1.73;;;;;;;10.22;89.31;98537.47;5053032;28;20055;-74
2023/10/18 12:03:29;;;;;;;3.33;2.22;;;;;;;10.24;91.47;98532.00;5019828;28;20047;-74
2023/10/18 12:05:56;;;;;;;3.38;2.13;;;;;;;10.32;92.75;98526.59;5019549;28;20056;-74
2023/10/18 12:08:23;;;;;;;2.65;1.92;;;;;;;10.38;92.90;98530.38;4986576;28;20114;-74
2023/10/18 12:10:52;;;;;;;3.35;1.67;;;;;;;10.18;94.07;98536.22;5019513;28;20048;-72
2023/10/18 12:13:20;;;;;;;1.80;1.40;;;;;;;9.88;94.42;98533.69;4985905;28;20135;-74
2023/10/18 12:15:50;;;;;;;4.00;1.27;;;;;;;9.98;94.62;98527.09;5019359;28;20139;-75
2023/10/18 12:18:15;;;;;;;1.77;1.60;;;;;;;10.13;93.93;98532.47;5018974;28;20068;-75
2023/10/18 12:20:44;;;;;;;1.83;1.35;;;;;;;10.34;93.96;98529.91;5002252;28;20069;-73
2023/10/18 12:23:18;;;;;;;2.85;1.40;;;;;;;10.38;93.48;98536.47;5017646;28;20059;-73
2023/10/18 12:25:46;;;;;;;2.22;1.40;;;;;;;10.46;94.03;98536.41;5034309;28;20080;-74
2023/10/18 12:28:13;;;;;;;1.60;1.25;;;;;;;10.62;93.42;98532.72;5001819;28;20692;-74
2023/10/18 12:30:44;;;;;;;2.20;1.40;;;;;;;10.66;93.07;98523.38;5034601;28;20060;-73
2023/10/18 12:33:23;;;;;;;2.50;1.00;;;;;;;10.50;93.02;98534.22;4987081;28;20037;-73
2023/10/18 12:35:51;;;;;;;1.67;1.45;;;;;;;10.49;93.03;98527.22;5020585;28;20044;-72
2023/10/18 12:38:20;;;;;;;1.85;1.20;;;;;;;10.40;92.84;98531.81;5035239;28;20041;-74
2023/10/18 12:40:54;;;;;;;1.20;1.10;;;;;;;10.31;93.50;98526.78;5003070;28;20123;-74
2023/10/18 12:43:21;;;;;;;1.38;1.13;;;;;;;10.41;93.61;98516.72;5018558;28;20045;-72
2023/10/18 12:45:50;;;;;;;1.77;1.45;;;;;;;10.27;94.44;98522.88;5018715;28;20102;-73
2023/10/18 12:48:22;;;;;;;2.25;1.48;;;;;;;10.32;95.98;98513.34;5002921;28;20059;-74
2023/10/18 12:50:52;;;;;;;3.25;1.70;;;;;;;10.31;95.83;98535.59;5035274;28;20044;-73
2023/10/18 12:56:23;;;;;;;2.38;1.48;;;;;;;10.22;97.97;98520.75;5035556;28;20353;-73
2023/10/18 12:58:47;;;;;;;4.47;1.30;;;;;;;10.29;97.86;98521.66;5003343;28;20079;-73
2023/10/18 13:01:22;;;;;;;3.88;1.30;;;;;;;10.26;98.02;98530.00;5003331;28;20102;-73
2023/10/18 13:03:59;;;;;;;1.75;1.25;;;;;;;10.18;98.69;98522.13;5019084;28;20051;-74
2023/10/18 13:06:35;;;;;;;2.00;1.20;;;;;;;10.01;99.66;98515.31;5034536;28;20072;-74